Time;durP1;ratioP1;P1;durP2;ratioP2;P2;SDS_P1;SDS_P2;PMS_P1;PMS_P2;Temp;Humidity;BMP_temperature;BMP_pressure;BME280_temperature;BME280_humidity;BME280_pressure;Samples;Min_cycle;Max_cycle;Signal;HPM_P1;HPM_P2
2023/03/21 00:01:02;;;;;;;23.25;10.50;;;7.40;99.90;;;;;;5076697;28;25149;-76
2023/03/21 00:03:32;;;;;;;19.85;9.27;;;7.40;99.90;;;;;;5076571;28;25108;-76
2023/03/21 00:06:08;;;;;;;20.15;10.23;;;7.40;99.90;;;;;;5076491;28;25074;-76
2023/03/21 00:08:35;;;;;;;21.05;10.93;;;7.40;99.90;;;;;;5076756;28;25058;-76
2023/03/21 00:11:05;;;;;;;19.58;10.63;;;7.40;99.90;;;;;;5077180;28;25095;-76
2023/03/21 00:13:37;;;;;;;21.73;11.57;;;7.40;99.90;;;;;;5058613;28;25078;-76
2023/03/21 00:16:15;;;;;;;28.05;10.52;;;7.40;99.90;;;;;;5076389;28;25066;-76
2023/03/21 00:18:45;;;;;;;27.42;12.10;;;7.40;99.90;;;;;;5076343;28;25057;-76
2023/03/21 00:21:21;;;;;;;24.88;10.77;;;7.40;99.90;;;;;;5076340;28;25117;-76
2023/03/21 00:23:48;;;;;;;24.52;10.95;;;7.40;99.90;;;;;;5058541;28;25065;-76
2023/03/21 00:26:16;;;;;;;25.98;11.57;;;7.40;99.90;;;;;;5076322;28;25071;-76
2023/03/21 00:28:43;;;;;;;23.65;11.45;;;7.40;99.90;;;;;;5076441;28;25120;-76
2023/03/21 00:31:11;;;;;;;25.00;11.73;;;7.40;99.90;;;;;;5076416;28;25052;-76
2023/03/21 00:33:38;;;;;;;23.27;11.18;;;7.40;99.90;;;;;;5076763;28;25079;-76
2023/03/21 00:36:08;;;;;;;27.40;11.95;;;7.40;99.90;;;;;;5076468;28;25121;-76
2023/03/21 00:38:36;;;;;;;25.50;12.48;;;7.40;99.90;;;;;;5076373;28;25106;-76
2023/03/21 00:41:08;;;;;;;30.42;12.57;;;7.40;99.90;;;;;;5076137;28;25051;-76
2023/03/21 00:43:35;;;;;;;24.63;12.05;;;7.40;99.90;;;;;;5076384;28;25079;-76
2023/03/21 00:46:02;;;;;;;27.23;11.45;;;7.40;99.90;;;;;;5058315;28;25074;-76
2023/03/21 00:48:30;;;;;;;27.27;12.85;;;7.40;99.90;;;;;;5076639;28;25118;-76
2023/03/21 00:51:01;;;;;;;24.85;11.93;;;7.40;99.90;;;;;;5075823;28;25111;-76
2023/03/21 00:53:30;;;;;;;25.08;12.23;;;7.50;99.90;;;;;;5076579;28;25081;-76
2023/03/21 00:55:57;;;;;;;25.55;10.73;;;7.50;99.90;;;;;;5076392;28;25066;-76
2023/03/21 00:58:25;;;;;;;26.27;11.82;;;7.50;99.90;;;;;;5058131;28;25090;-76
2023/03/21 01:00:52;;;;;;;25.80;10.80;;;7.50;99.90;;;;;;5075982;28;25068;-76
2023/03/21 01:03:19;;;;;;;23.60;11.20;;;7.50;99.90;;;;;;5075890;28;25101;-76
2023/03/21 01:06:04;;;;;;;29.85;11.55;;;7.50;99.90;;;;;;5076363;28;25095;-76
2023/03/21 01:08:37;;;;;;;29.52;11.93;;;7.50;99.90;;;;;;5075821;28;25071;-76
2023/03/21 01:11:08;;;;;;;24.02;10.05;;;7.50;99.90;;;;;;5075869;28;25099;-76
2023/03/21 01:13:35;;;;;;;25.85;11.60;;;7.50;99.90;;;;;;5076338;28;25074;-76
2023/03/21 01:16:04;;;;;;;21.35;10.93;;;7.50;99.90;;;;;;5079765;28;25124;-76
2023/03/21 01:18:32;;;;;;;21.83;10.07;;;7.60;99.90;;;;;;5079714;28;25108;-76
2023/03/21 01:21:00;;;;;;;20.55;11.63;;;7.50;99.90;;;;;;5061802;28;25163;-76
2023/03/21 01:23:28;;;;;;;26.00;11.00;;;7.50;99.90;;;;;;5079712;28;25077;-76
2023/03/21 01:25:56;;;;;;;20.55;11.00;;;7.50;99.90;;;;;;5079585;28;25088;-76
2023/03/21 01:28:27;;;;;;;25.48;11.38;;;7.50;99.90;;;;;;5061650;28;25052;-76
2023/03/21 01:30:54;;;;;;;24.58;12.75;;;7.50;99.90;;;;;;5079349;28;25097;-76
2023/03/21 01:33:22;;;;;;;30.17;12.10;;;7.50;99.90;;;;;;5079446;28;25078;-76
2023/03/21 01:35:50;;;;;;;24.70;11.43;;;7.50;99.90;;;;;;5079427;28;25073;-76
2023/03/21 01:38:17;;;;;;;27.70;13.13;;;7.50;99.90;;;;;;5061383;28;25111;-76
2023/03/21 01:40:47;;;;;;;27.48;12.15;;;7.50;99.90;;;;;;5079131;28;25131;-76
2023/03/21 01:43:30;;;;;;;32.30;13.07;;;7.40;99.90;;;;;;5079361;28;25118;-76
2023/03/21 01:46:10;;;;;;;31.55;13.27;;;7.40;99.90;;;;;;5079223;28;25141;-76
2023/03/21 01:48:41;;;;;;;23.50;12.93;;;7.40;99.90;;;;;;5061497;28;25112;-76
2023/03/21 01:51:10;;;;;;;34.33;15.30;;;7.40;99.90;;;;;;5078825;28;25086;-76
2023/03/21 01:53:39;;;;;;;32.55;14.00;;;7.40;99.90;;;;;;5061120;28;25068;-76
2023/03/21 01:56:22;;;;;;;32.58;12.68;;;7.40;99.90;;;;;;5078869;28;25062;-76
2023/03/21 01:58:54;;;;;;;30.80;13.35;;;7.40;99.90;;;;;;5078678;28;25128;-76
2023/03/21 02:01:23;;;;;;;28.80;13.40;;;7.40;99.90;;;;;;5079058;28;25110;-76
2023/03/21 02:03:51;;;;;;;29.90;13.75;;;7.40;99.90;;;;;;5079009;28;25048;-76
2023/03/21 02:06:57;;;;;;;31.23;14.05;;;7.40;99.90;;;;;;5078987;28;25109;-76
2023/03/21 02:09:28;;;;;;;29.48;13.40;;;7.40;99.90;;;;;;5061042;28;25083;-76
2023/03/21 02:11:55;;;;;;;29.00;14.55;;;7.40;99.90;;;;;;5078836;28;25114;-76
2023/03/21 02:14:23;;;;;;;32.03;13.57;;;7.40;99.90;;;;;;5079135;28;25096;-76
2023/03/21 02:16:50;;;;;;;28.30;13.82;;;7.40;99.90;;;;;;5078787;28;25096;-76
2023/03/21 02:19:30;;;;;;;33.38;13.23;;;7.40;99.90;;;;;;5078852;28;25064;-76
2023/03/21 02:22:20;;;;;;;26.13;12.13;;;7.40;99.90;;;;;;5078392;28;25111;-76
2023/03/21 02:25:27;;;;;;;41.10;13.80;;;7.40;99.90;;;;;;5078308;28;25080;-76
2023/03/21 02:28:08;;;;;;;31.35;12.35;;;7.40;99.90;;;;;;5078601;28;25071;-76
2023/03/21 02:31:05;;;;;;;29.92;14.25;;;7.50;99.90;;;;;;5078262;28;25093;-76
2023/03/21 02:34:14;;;;;;;27.88;13.82;;;7.50;99.90;;;;;;5047394;28;25098;-76
2023/03/21 02:37:20;;;;;;;26.67;12.70;;;7.50;99.90;;;;;;5070232;28;25056;-76
2023/03/21 02:40:06;;;;;;;28.20;12.90;;;7.50;99.90;;;;;;5076598;28;25075;-76
2023/03/21 02:42:49;;;;;;;25.10;13.65;;;7.50;99.90;;;;;;5078187;28;25128;-76
2023/03/21 02:45:25;;;;;;;30.80;14.15;;;7.50;99.90;;;;;;5078234;28;25071;-76
2023/03/21 02:48:03;;;;;;;23.60;12.88;;;7.50;99.90;;;;;;5077965;28;25055;-76
2023/03/21 02:51:07;;;;;;;28.08;13.80;;;7.50;99.90;;;;;;5077858;28;25116;-76
2023/03/21 02:53:40;;;;;;;24.45;12.85;;;7.50;99.90;;;;;;5016438;28;25111;-76
2023/03/21 02:56:09;;;;;;;30.90;13.60;;;7.60;99.90;;;;;;5016471;28;25115;-76
2023/03/21 02:58:39;;;;;;;32.03;14.32;;;7.60;99.90;;;;;;5016396;28;25063;-76
2023/03/21 03:01:08;;;;;;;33.08;13.55;;;7.60;99.90;;;;;;5016189;28;25087;-76
2023/03/21 03:03:38;;;;;;;25.05;12.32;;;7.60;99.90;;;;;;5016022;28;25074;-76
2023/03/21 03:06:28;;;;;;;24.00;11.90;;;7.60;99.90;;;;;;5016344;28;25078;-76
2023/03/21 03:09:16;;;;;;;26.65;13.48;;;7.60;99.90;;;;;;5016458;28;25093;-76
2023/03/21 03:11:45;;;;;;;22.50;12.55;;;7.60;99.90;;;;;;5016189;28;25069;-76
2023/03/21 03:14:41;;;;;;;23.00;12.20;;;7.60;99.90;;;;;;5016555;28;25080;-76
2023/03/21 03:17:22;;;;;;;24.33;13.07;;;7.60;99.90;;;;;;5015857;28;25056;-76
2023/03/21 03:20:15;;;;;;;21.98;12.68;;;7.60;99.90;;;;;;5015648;28;25095;-76
2023/03/21 03:22:49;;;;;;;23.85;12.45;;;7.60;99.90;;;;;;5010764;28;25083;-76
2023/03/21 03:25:26;;;;;;;26.42;12.60;;;7.60;99.90;;;;;;5015968;28;25076;-76
2023/03/21 03:27:55;;;;;;;23.73;12.98;;;7.60;99.90;;;;;;5056613;28;25055;-76
2023/03/21 03:30:26;;;;;;;26.25;13.10;;;7.60;99.90;;;;;;5059326;28;25062;-76
2023/03/21 03:33:01;;;;;;;27.17;12.35;;;7.60;99.90;;;;;;5077552;28;25079;-76
2023/03/21 03:35:29;;;;;;;26.00;13.00;;;7.60;99.90;;;;;;5078016;28;25107;-76
2023/03/21 03:38:02;;;;;;;24.23;13.10;;;7.60;99.90;;;;;;5058721;28;25061;-76
2023/03/21 03:40:41;;;;;;;28.63;13.88;;;7.60;99.90;;;;;;5059090;28;25109;-76
2023/03/21 03:43:28;;;;;;;31.02;13.23;;;7.60;99.90;;;;;;5077344;28;25107;-76
2023/03/21 03:46:03;;;;;;;29.52;14.63;;;7.60;99.90;;;;;;5076793;28;25102;-76
2023/03/21 03:48:45;;;;;;;34.75;15.20;;;7.60;99.90;;;;;;5058988;28;25014;-76
2023/03/21 03:51:36;;;;;;;34.42;15.75;;;7.60;99.90;;;;;;5076683;28;25089;-76
2023/03/21 03:54:17;;;;;;;29.70;14.00;;;7.60;99.90;;;;;;5076645;28;25058;-76
2023/03/21 03:56:45;;;;;;;35.17;16.58;;;7.60;99.90;;;;;;5076809;28;25059;-76
2023/03/21 03:59:22;;;;;;;31.27;15.45;;;7.60;99.90;;;;;;5076509;28;25099;-76
2023/03/21 04:01:49;;;;;;;28.38;15.18;;;7.70;99.90;;;;;;5076603;28;25063;-76
2023/03/21 04:04:17;;;;;;;33.38;15.07;;;7.70;99.90;;;;;;5076555;28;25063;-76
2023/03/21 04:06:50;;;;;;;40.03;15.18;;;7.70;99.90;;;;;;5076665;28;25062;-76
2023/03/21 04:09:18;;;;;;;35.53;14.63;;;7.70;99.90;;;;;;5076432;28;25061;-76
2023/03/21 04:11:46;;;;;;;31.35;15.40;;;7.70;99.90;;;;;;5076546;28;25120;-76
2023/03/21 04:14:14;;;;;;;34.15;14.55;;;7.70;99.90;;;;;;5076396;28;25071;-76
2023/03/21 04:16:42;;;;;;;31.73;15.43;;;7.70;99.90;;;;;;5076344;28;25069;-76
2023/03/21 04:19:10;;;;;;;33.67;15.70;;;7.70;99.90;;;;;;5076289;28;25094;-76
2023/03/21 04:21:38;;;;;;;31.88;13.85;;;7.70;99.90;;;;;;5058511;28;25076;-76
2023/03/21 04:24:06;;;;;;;32.97;14.80;;;7.70;99.90;;;;;;5076857;28;25078;-76
2023/03/21 04:26:35;;;;;;;36.90;14.68;;;7.70;99.90;;;;;;5076509;28;25069;-76
2023/03/21 04:29:04;;;;;;;31.15;14.13;;;7.70;99.90;;;;;;5076307;28;25073;-76
2023/03/21 04:31:33;;;;;;;29.05;13.80;;;7.70;99.90;;;;;;5076414;28;25067;-76
2023/03/21 04:34:02;;;;;;;28.50;13.85;;;7.70;99.90;;;;;;5058627;28;25121;-76
2023/03/21 04:36:32;;;;;;;34.17;14.25;;;7.70;99.90;;;;;;5076236;28;25057;-76
2023/03/21 04:39:00;;;;;;;31.88;14.45;;;7.70;99.90;;;;;;5076017;28;25065;-76
2023/03/21 04:41:28;;;;;;;29.13;13.65;;;7.70;99.90;;;;;;5058497;28;25105;-76
2023/03/21 04:43:56;;;;;;;31.52;14.63;;;7.70;99.90;;;;;;5076113;28;25060;-76
2023/03/21 04:46:24;;;;;;;29.13;14.32;;;7.70;99.90;;;;;;5076129;28;25084;-76
2023/03/21 04:48:51;;;;;;;32.83;14.05;;;7.70;99.90;;;;;;5076618;28;25075;-76
2023/03/21 04:51:19;;;;;;;33.47;14.25;;;7.70;99.90;;;;;;5059034;28;25094;-76
2023/03/21 04:53:48;;;;;;;34.90;13.63;;;7.80;99.90;;;;;;5060079;28;25085;-76
2023/03/21 04:56:15;;;;;;;24.50;12.98;;;7.80;99.90;;;;;;5060055;28;25089;-76
2023/03/21 04:58:43;;;;;;;28.50;13.55;;;7.80;99.90;;;;;;5059870;28;25075;-76
2023/03/21 05:01:13;;;;;;;32.90;12.07;;;7.80;99.90;;;;;;5060293;28;25071;-76
2023/03/21 05:03:40;;;;;;;29.10;12.68;;;7.80;99.90;;;;;;5059750;28;25061;-76
2023/03/21 05:06:09;;;;;;;39.10;13.02;;;7.80;99.90;;;;;;5060354;28;25068;-76
2023/03/21 05:08:38;;;;;;;25.55;12.20;;;7.90;99.90;;;;;;5060387;28;25056;-76
2023/03/21 05:11:06;;;;;;;26.58;11.75;;;7.80;99.90;;;;;;5060189;28;25054;-76
2023/03/21 05:13:33;;;;;;;32.45;12.23;;;7.90;99.90;;;;;;5058604;28;25098;-76
2023/03/21 05:16:00;;;;;;;33.67;12.23;;;7.90;99.90;;;;;;5058629;28;25099;-76
2023/03/21 05:18:29;;;;;;;24.48;12.05;;;7.90;99.90;;;;;;5059515;28;25104;-76
2023/03/21 05:20:57;;;;;;;28.30;11.35;;;7.90;99.90;;;;;;5059753;28;25076;-76
2023/03/21 05:23:24;;;;;;;25.58;11.45;;;7.90;99.90;;;;;;5059826;28;25079;-76
2023/03/21 05:25:51;;;;;;;31.73;11.75;;;7.90;99.90;;;;;;5060005;28;25043;-76
2023/03/21 05:28:18;;;;;;;26.77;11.38;;;8.00;99.90;;;;;;5059923;28;25056;-76
2023/03/21 05:30:46;;;;;;;25.63;11.73;;;8.00;99.90;;;;;;5059419;28;25131;-76
2023/03/21 05:33:14;;;;;;;27.35;11.20;;;8.00;99.90;;;;;;5059581;28;25081;-76
2023/03/21 05:35:41;;;;;;;25.38;11.40;;;8.00;99.90;;;;;;5058418;28;25055;-76
2023/03/21 05:38:09;;;;;;;31.83;11.55;;;8.00;99.90;;;;;;5059756;28;25108;-76
2023/03/21 05:40:37;;;;;;;29.95;11.48;;;8.00;99.90;;;;;;5059173;28;25152;-76
2023/03/21 05:43:04;;;;;;;27.60;10.73;;;8.10;99.90;;;;;;5059381;28;25107;-76
2023/03/21 05:45:32;;;;;;;30.48;12.85;;;8.10;99.90;;;;;;5059720;28;25076;-76
2023/03/21 05:48:00;;;;;;;20.58;10.30;;;8.10;99.90;;;;;;5059602;28;25058;-76
2023/03/21 05:50:28;;;;;;;25.35;10.93;;;8.10;99.90;;;;;;5057835;28;25098;-76
2023/03/21 05:52:55;;;;;;;29.70;11.13;;;8.10;99.90;;;;;;5059303;28;25074;-76
2023/03/21 05:55:23;;;;;;;23.50;11.63;;;8.10;99.90;;;;;;5059581;28;25046;-76
2023/03/21 05:57:50;;;;;;;22.75;11.77;;;8.10;99.90;;;;;;5058905;28;25133;-76
2023/03/21 06:00:20;;;;;;;27.60;10.93;;;8.20;99.90;;;;;;5058630;28;25061;-74
2023/03/21 06:02:48;;;;;;;18.85;9.85;;;8.20;99.90;;;;;;5059260;28;25076;-76
2023/03/21 06:05:19;;;;;;;20.35;9.48;;;8.20;99.90;;;;;;5057752;28;25060;-76
2023/03/21 06:07:46;;;;;;;21.42;9.73;;;8.30;99.90;;;;;;5058989;28;25070;-76
2023/03/21 06:10:14;;;;;;;27.60;10.30;;;8.30;99.90;;;;;;5057574;28;25271;-75
2023/03/21 06:12:42;;;;;;;26.33;11.23;;;8.40;99.90;;;;;;5059186;28;25114;-76
2023/03/21 06:15:10;;;;;;;24.02;9.13;;;8.50;99.90;;;;;;5058568;28;25111;-76
2023/03/21 06:17:38;;;;;;;20.58;9.07;;;8.50;99.90;;;;;;5058936;28;25128;-76
2023/03/21 06:20:07;;;;;;;20.73;10.02;;;8.60;99.90;;;;;;5059258;28;25098;-76
2023/03/21 06:22:35;;;;;;;20.20;9.82;;;8.60;99.90;;;;;;5059048;28;25060;-76
2023/03/21 06:25:06;;;;;;;24.45;10.27;;;8.60;99.90;;;;;;5058928;28;25094;-76
2023/03/21 06:27:34;;;;;;;17.05;9.07;;;8.60;99.90;;;;;;5058432;28;25143;-76
2023/03/21 06:30:02;;;;;;;25.52;10.68;;;8.70;99.90;;;;;;5058287;28;25064;-79
2023/03/21 06:32:29;;;;;;;26.95;10.60;;;8.70;99.90;;;;;;5057195;28;25065;-76
2023/03/21 06:34:57;;;;;;;30.63;10.05;;;8.70;99.90;;;;;;5058156;28;25056;-78
2023/03/21 06:37:28;;;;;;;19.88;9.90;;;8.80;99.90;;;;;;5057255;28;25055;-88
2023/03/21 06:39:56;;;;;;;23.40;9.48;;;8.80;99.90;;;;;;5058028;28;25100;-78
2023/03/21 06:42:23;;;;;;;25.52;8.95;;;8.90;99.90;;;;;;5058370;28;25094;-79
2023/03/21 06:44:51;;;;;;;21.02;10.07;;;8.90;99.90;;;;;;5059572;28;25072;-81
2023/03/21 06:47:19;;;;;;;23.00;10.13;;;9.00;99.90;;;;;;5059176;28;25068;-90
2023/03/21 06:49:46;;;;;;;27.13;10.40;;;9.00;99.90;;;;;;5060094;28;25103;-78
2023/03/21 06:52:13;;;;;;;20.52;9.27;;;9.10;99.90;;;;;;5077878;28;25065;-81
2023/03/21 06:54:41;;;;;;;19.38;9.85;;;9.10;99.90;;;;;;5078216;28;25060;-88
2023/03/21 06:57:08;;;;;;;24.33;9.90;;;9.10;99.90;;;;;;5061194;28;25066;-93
2023/03/21 06:59:35;;;;;;;21.77;9.13;;;9.20;99.90;;;;;;5060404;28;25061;-89
2023/03/21 07:02:03;;;;;;;17.42;8.73;;;9.20;99.90;;;;;;5060302;28;25051;-87
2023/03/21 07:04:31;;;;;;;22.25;9.32;;;9.20;99.90;;;;;;5060183;28;25104;-88
2023/03/21 07:06:59;;;;;;;22.60;9.15;;;9.30;99.90;;;;;;5060251;28;25050;-88
2023/03/21 07:09:27;;;;;;;19.45;8.77;;;9.30;99.90;;;;;;5060199;28;25060;-89
2023/03/21 07:11:54;;;;;;;17.20;8.05;;;9.40;99.90;;;;;;5059259;28;25048;-88
2023/03/21 07:14:22;;;;;;;20.20;8.93;;;9.40;99.90;;;;;;5059990;28;25085;-90
2023/03/21 07:16:50;;;;;;;20.92;9.35;;;9.50;99.90;;;;;;5060265;28;25053;-79
2023/03/21 07:19:17;;;;;;;19.65;7.95;;;9.50;99.90;;;;;;5077503;28;24779;-76
2023/03/21 07:21:45;;;;;;;16.23;7.22;;;9.60;99.90;;;;;;5077616;28;25070;-74
2023/03/21 07:24:13;;;;;;;14.13;8.02;;;9.60;99.90;;;;;;5077243;28;25148;-74
2023/03/21 07:26:40;;;;;;;25.60;8.90;;;9.60;99.90;;;;;;5059624;28;25124;-75
2023/03/21 07:29:08;;;;;;;18.52;6.63;;;9.70;99.90;;;;;;5077363;28;25052;-74
2023/03/21 07:31:36;;;;;;;24.15;8.55;;;9.70;99.90;;;;;;5059252;28;25066;-76
2023/03/21 07:34:04;;;;;;;19.98;9.77;;;9.70;99.90;;;;;;5077557;28;25092;-76
2023/03/21 07:36:33;;;;;;;20.65;8.60;;;9.80;99.90;;;;;;5077163;28;25061;-76
2023/03/21 07:39:01;;;;;;;19.80;9.48;;;9.80;99.90;;;;;;5076865;28;25096;-77
2023/03/21 07:41:28;;;;;;;25.08;7.72;;;9.90;99.90;;;;;;5076872;28;25125;-79
2023/03/21 07:43:56;;;;;;;21.58;9.30;;;10.00;99.90;;;;;;5076817;28;25057;-75
2023/03/21 07:46:24;;;;;;;23.33;9.13;;;10.10;99.90;;;;;;5077537;28;25085;-75
2023/03/21 07:48:51;;;;;;;22.60;8.68;;;10.10;99.90;;;;;;5076772;28;25079;-75
2023/03/21 07:51:18;;;;;;;26.23;9.45;;;10.20;99.90;;;;;;5076898;28;25118;-75
2023/03/21 07:53:47;;;;;;;21.85;8.60;;;10.20;99.90;;;;;;5077564;28;25117;-75
2023/03/21 07:56:15;;;;;;;24.17;7.95;;;10.30;99.90;;;;;;5077194;28;25135;-75
2023/03/21 07:58:42;;;;;;;15.82;7.80;;;10.40;99.90;;;;;;5076537;28;25098;-75
2023/03/21 08:01:09;;;;;;;18.02;7.05;;;10.40;99.90;;;;;;5059214;28;25111;-75
2023/03/21 08:03:43;;;;;;;18.92;7.10;;;10.50;99.90;;;;;;5076881;28;25064;-75
2023/03/21 08:06:10;;;;;;;17.88;7.13;;;10.60;99.90;;;;;;5076560;28;25059;-75
2023/03/21 08:08:38;;;;;;;21.13;8.80;;;10.70;99.90;;;;;;5076838;28;25062;-74
2023/03/21 08:11:05;;;;;;;14.75;6.85;;;10.70;99.90;;;;;;5077054;28;25070;-75
2023/03/21 08:13:33;;;;;;;23.65;7.55;;;10.80;99.90;;;;;;5076502;28;25064;-75
2023/03/21 08:16:01;;;;;;;18.23;7.40;;;10.80;99.90;;;;;;5076613;28;25079;-75
2023/03/21 08:18:28;;;;;;;18.13;6.63;;;10.90;99.90;;;;;;5058591;28;25121;-75
2023/03/21 08:20:57;;;;;;;17.95;6.75;;;11.00;99.90;;;;;;5076829;28;25077;-75
2023/03/21 08:23:25;;;;;;;15.90;7.00;;;11.10;99.90;;;;;;5076484;28;25113;-75
2023/03/21 08:25:53;;;;;;;22.95;8.18;;;11.10;99.90;;;;;;5076534;28;25053;-75
2023/03/21 08:28:22;;;;;;;18.83;6.32;;;11.20;99.90;;;;;;5076324;28;25116;-75
2023/03/21 08:30:50;;;;;;;16.20;5.75;;;11.30;99.90;;;;;;5058633;28;25132;-75
2023/03/21 08:33:18;;;;;;;16.25;6.80;;;11.40;99.90;;;;;;5076281;28;25070;-75
2023/03/21 08:35:45;;;;;;;14.80;6.47;;;11.40;99.90;;;;;;5076309;28;25058;-75
2023/03/21 08:38:13;;;;;;;14.98;5.72;;;11.50;99.90;;;;;;5058456;28;25047;-75
2023/03/21 08:40:40;;;;;;;14.07;5.63;;;11.60;99.90;;;;;;5076827;28;25063;-75
2023/03/21 08:43:07;;;;;;;14.75;6.30;;;11.60;99.90;;;;;;5076746;28;25054;-75
2023/03/21 08:45:35;;;;;;;12.27;5.93;;;11.60;99.90;;;;;;5058461;28;25074;-75
2023/03/21 08:48:03;;;;;;;19.30;6.25;;;11.70;99.90;;;;;;5076127;28;25074;-75
2023/03/21 08:50:30;;;;;;;11.40;6.35;;;11.70;99.90;;;;;;5054932;28;25075;-75
2023/03/21 08:52:59;;;;;;;25.33;7.88;;;11.70;99.90;;;;;;5056324;28;25057;-75
2023/03/21 08:55:26;;;;;;;17.73;6.38;;;11.80;99.90;;;;;;5054972;28;25061;-75
2023/03/21 08:57:53;;;;;;;13.15;5.55;;;11.80;99.90;;;;;;5056283;28;25217;-74
2023/03/21 09:00:21;;;;;;;17.95;6.13;;;11.90;99.90;;;;;;5056565;28;25112;-74
2023/03/21 09:02:51;;;;;;;18.80;6.00;;;12.00;99.90;;;;;;5056322;28;25099;-74
2023/03/21 09:05:19;;;;;;;12.15;5.78;;;12.10;99.90;;;;;;5055960;28;25063;-75
2023/03/21 09:07:48;;;;;;;15.88;7.22;;;12.20;99.90;;;;;;5056219;28;25088;-74
2023/03/21 09:10:20;;;;;;;15.73;5.57;;;12.20;99.90;;;;;;5056056;28;25100;-74
2023/03/21 09:12:49;;;;;;;15.50;6.35;;;12.30;99.90;;;;;;5055883;28;25133;-74
2023/03/21 09:15:19;;;;;;;16.15;6.82;;;12.30;99.90;;;;;;5055865;28;25066;-74
2023/03/21 09:17:51;;;;;;;14.77;6.43;;;12.20;99.90;;;;;;5055732;28;25120;-74
2023/03/21 09:20:29;;;;;;;13.25;6.55;;;12.20;99.90;;;;;;5055807;28;25096;-74
2023/03/21 09:22:57;;;;;;;16.42;6.88;;;12.20;99.90;;;;;;5056056;28;25097;-74
2023/03/21 09:25:28;;;;;;;14.38;5.68;;;12.10;99.90;;;;;;5054690;28;25059;-75
2023/03/21 09:27:56;;;;;;;14.27;6.32;;;12.00;99.90;;;;;;5055940;28;25053;-74
2023/03/21 09:30:24;;;;;;;15.18;6.25;;;11.90;99.90;;;;;;5056124;28;25071;-76
2023/03/21 09:32:54;;;;;;;15.60;6.70;;;11.80;99.90;;;;;;5055930;28;25121;-77
2023/03/21 09:35:23;;;;;;;18.45;6.50;;;11.70;99.90;;;;;;5056478;28;25072;-77
2023/03/21 09:37:50;;;;;;;11.98;5.78;;;11.50;99.90;;;;;;5059260;28;25093;-77
2023/03/21 09:40:32;;;;;;;16.02;6.32;;;11.40;99.90;;;;;;5059654;28;25145;-77
2023/03/21 09:43:11;;;;;;;17.63;6.95;;;11.30;99.90;;;;;;5059750;28;25065;-77
2023/03/21 09:46:23;;;;;;;17.10;5.72;;;11.20;99.90;;;;;;5059519;28;25126;-77
2023/03/21 09:49:19;;;;;;;16.80;6.45;;;11.20;99.90;;;;;;5050957;28;25070;-78
2023/03/21 09:51:53;;;;;;;15.05;5.75;;;11.20;99.90;;;;;;5051236;28;25123;-79
2023/03/21 09:54:32;;;;;;;12.38;6.13;;;11.30;99.90;;;;;;5057887;28;25100;-75
2023/03/21 09:57:18;;;;;;;15.20;5.85;;;11.20;99.90;;;;;;5058768;28;25073;-74
2023/03/21 09:59:52;;;;;;;14.82;6.20;;;11.20;99.90;;;;;;5058791;28;25066;-74
2023/03/21 10:02:45;;;;;;;18.15;7.20;;;11.10;99.90;;;;;;5059570;28;25105;-75
2023/03/21 10:05:24;;;;;;;13.13;6.13;;;11.00;99.90;;;;;;5058733;28;25065;-75
2023/03/21 10:08:21;;;;;;;14.98;6.00;;;11.00;99.90;;;;;;5059296;28;25065;-75
2023/03/21 10:10:55;;;;;;;;;;;10.90;99.90;;;;;;5059276;28;25078;-75
2023/03/21 10:13:27;;;;;;;14.93;5.65;;;10.90;99.90;;;;;;5058891;28;25144;-74
2023/03/21 10:16:09;;;;;;;12.10;5.45;;;10.80;99.90;;;;;;5059132;28;25069;-74
2023/03/21 10:18:38;;;;;;;15.05;6.50;;;10.80;99.90;;;;;;5058478;28;25066;-75
2023/03/21 10:21:06;;;;;;;13.27;6.18;;;10.80;99.90;;;;;;5058670;28;25108;-75
2023/03/21 10:23:34;;;;;;;15.63;6.47;;;10.90;99.90;;;;;;5058436;28;25050;-75
2023/03/21 10:26:05;;;;;;;22.55;7.68;;;10.90;99.90;;;;;;5058339;28;25147;-75
2023/03/21 10:28:36;;;;;;;20.05;6.95;;;11.00;99.90;;;;;;5058261;28;25094;-76
2023/03/21 10:31:07;;;;;;;16.10;6.78;;;11.10;99.90;;;;;;5058707;28;25090;-74
2023/03/21 10:33:43;;;;;;;13.95;6.97;;;11.10;99.90;;;;;;5058526;28;25058;-76
2023/03/21 10:36:24;;;;;;;20.55;7.15;;;11.10;99.90;;;;;;5058523;28;25148;-75
2023/03/21 10:38:57;;;;;;;13.85;6.53;;;11.10;99.90;;;;;;5058578;28;25054;-74
2023/03/21 10:41:24;;;;;;;26.52;8.15;;;11.20;99.90;;;;;;5057041;28;25102;-74
2023/03/21 10:44:06;;;;;;;20.17;7.85;;;11.20;99.90;;;;;;5056975;28;25073;-75
2023/03/21 10:46:34;;;;;;;16.80;7.53;;;11.30;99.90;;;;;;5057384;28;25067;-77
2023/03/21 10:49:02;;;;;;;17.38;8.23;;;11.30;99.90;;;;;;5057907;28;25122;-76
2023/03/21 10:51:36;;;;;;;18.20;7.72;;;11.40;99.90;;;;;;5075547;28;25081;-71
2023/03/21 10:54:14;;;;;;;19.58;8.52;;;11.40;99.90;;;;;;5078187;28;25114;-75
2023/03/21 10:57:03;;;;;;;19.35;8.73;;;11.40;99.90;;;;;;5077978;28;25055;-74
2023/03/21 10:59:53;;;;;;;22.42;8.73;;;11.40;99.90;;;;;;5077962;28;25069;-76
2023/03/21 11:02:30;;;;;;;19.63;7.45;;;11.40;99.90;;;;;;5078264;28;25074;-74
2023/03/21 11:05:03;;;;;;;21.20;9.13;;;11.40;99.90;;;;;;5059912;28;25087;-77
2023/03/21 11:07:31;;;;;;;16.73;8.75;;;11.40;99.90;;;;;;5077580;28;25106;-76
2023/03/21 11:10:00;;;;;;;16.92;8.55;;;11.40;99.90;;;;;;5077789;28;25085;-74
2023/03/21 11:12:39;;;;;;;23.33;10.00;;;11.40;99.90;;;;;;5059679;28;25074;-76
2023/03/21 11:15:41;;;;;;;19.52;8.70;;;11.50;99.90;;;;;;5077549;28;25105;-74
2023/03/21 11:18:22;;;;;;;17.30;8.45;;;11.40;99.90;;;;;;5077271;28;25133;-74
2023/03/21 11:21:05;;;;;;;17.02;8.23;;;11.40;99.90;;;;;;5077500;28;25053;-74
2023/03/21 11:23:40;;;;;;;18.98;7.35;;;11.30;99.90;;;;;;5077149;28;25096;-74
2023/03/21 11:26:22;;;;;;;16.75;7.50;;;11.30;99.90;;;;;;5077520;28;25098;-74
2023/03/21 11:28:51;;;;;;;17.25;7.85;;;11.20;99.90;;;;;;5076976;28;25057;-74
2023/03/21 11:31:19;;;;;;;17.60;7.78;;;11.10;99.90;;;;;;5059379;28;25061;-74
2023/03/21 11:33:52;;;;;;;26.10;11.15;;;11.10;99.90;;;;;;5059534;28;25057;-74
2023/03/21 11:36:20;;;;;;;28.60;10.90;;;11.00;99.90;;;;;;5077120;28;25069;-74
2023/03/21 11:38:57;;;;;;;15.98;8.18;;;11.00;99.90;;;;;;5077016;28;25056;-74
2023/03/21 11:41:32;;;;;;;14.82;6.93;;;11.00;99.90;;;;;;5076910;28;25145;-74
2023/03/21 11:44:01;;;;;;;21.10;7.82;;;11.00;99.90;;;;;;5076776;28;25055;-74
2023/03/21 11:46:31;;;;;;;17.95;7.28;;;11.00;99.90;;;;;;5077208;28;25057;-74
2023/03/21 11:49:00;;;;;;;11.43;6.32;;;11.00;99.90;;;;;;5076670;28;25084;-78
2023/03/21 11:51:48;;;;;;;12.52;5.65;;;11.00;99.90;;;;;;5055416;28;25076;-76
2023/03/21 11:54:50;;;;;;;13.75;5.20;;;11.00;99.90;;;;;;5056910;28;25071;-74
2023/03/21 11:57:51;;;;;;;14.00;5.68;;;11.00;99.90;;;;;;5056695;28;25062;-75
2023/03/21 12:00:43;;;;;;;11.30;6.03;;;11.00;99.90;;;;;;5056356;28;25115;-74
2023/03/21 12:03:18;;;;;;;14.05;5.78;;;11.10;99.90;;;;;;5056722;28;25081;-74
2023/03/21 12:06:01;;;;;;;17.83;6.93;;;11.10;99.90;;;;;;5055564;28;25058;-74
2023/03/21 12:08:44;;;;;;;13.07;5.90;;;11.20;99.90;;;;;;5056928;28;25102;-74
2023/03/21 12:11:45;;;;;;;17.60;5.60;;;11.10;99.90;;;;;;5056353;28;25106;-74
2023/03/21 12:14:33;;;;;;;14.63;6.88;;;11.10;99.90;;;;;;5056361;28;25103;-74
2023/03/21 12:17:43;;;;;;;13.88;6.03;;;11.10;99.90;;;;;;5056472;28;25050;-74
2023/03/21 12:20:19;;;;;;;16.90;6.25;;;11.10;99.90;;;;;;5056527;28;25087;-74
2023/03/21 12:22:52;;;;;;;16.10;6.73;;;11.20;99.90;;;;;;5056523;28;25056;-73
2023/03/21 12:25:53;;;;;;;12.05;6.72;;;11.20;99.90;;;;;;5056638;28;25101;-74
2023/03/21 12:28:45;;;;;;;17.00;6.18;;;11.30;99.90;;;;;;5056138;28;25056;-74
2023/03/21 12:31:30;;;;;;;12.40;5.88;;;11.30;99.90;;;;;;5056157;28;25068;-74
2023/03/21 12:34:24;;;;;;;12.07;5.10;;;11.40;99.90;;;;;;5056048;28;25089;-74
2023/03/21 12:37:28;;;;;;;13.70;5.13;;;11.40;99.90;;;;;;5056223;28;25088;-73
2023/03/21 12:40:23;;;;;;;14.45;5.38;;;11.40;99.90;;;;;;5056533;28;25103;-74
2023/03/21 12:43:39;;;;;;;9.13;4.55;;;11.40;99.90;;;;;;5056298;28;25149;-75
2023/03/21 12:46:29;;;;;;;20.30;6.47;;;11.40;99.90;;;;;;5043339;28;25054;-76
2023/03/21 12:49:05;;;;;;;12.32;4.75;;;11.40;99.90;;;;;;5056634;28;25059;-75
2023/03/21 12:51:43;;;;;;;12.98;4.47;;;11.30;99.90;;;;;;5074007;28;25159;-74
2023/03/21 12:54:17;;;;;;;13.75;4.47;;;11.30;99.90;;;;;;5076039;28;25145;-76
2023/03/21 12:56:51;;;;;;;8.38;4.53;;;11.20;99.90;;;;;;5076493;28;25141;-75
2023/03/21 12:59:36;;;;;;;13.38;4.25;;;11.20;99.90;;;;;;5076186;28;25074;-73
2023/03/21 13:02:34;;;;;;;9.35;4.50;;;11.20;99.90;;;;;;5076004;28;25069;-74
2023/03/21 13:05:26;;;;;;;8.20;4.43;;;11.20;99.90;;;;;;5058098;28;25053;-74
2023/03/21 13:08:12;;;;;;;10.45;4.25;;;11.20;99.90;;;;;;5076222;28;25102;-74
2023/03/21 13:10:43;;;;;;;11.30;5.25;;;11.30;99.90;;;;;;5077800;28;25063;-74